Time;durP1;ratioP1;P1;durP2;ratioP2;P2;SDS_P1;SDS_P2;PMS_P1;PMS_P2;Temp;Humidity;BMP_temperature;BMP_pressure;BME280_temperature;BME280_humidity;BME280_pressure;Samples;Min_cycle;Max_cycle;Signal;HPM_P1;HPM_P2
2021/08/07 00:01:00;;;;;;;6.13;1.42;;;;;;;14.64;76.95;99340.38;5085702;27;20122;-75
2021/08/07 00:03:46;;;;;;;7.45;1.67;;;;;;;14.62;76.53;99337.09;5072248;27;20096;-74
2021/08/07 00:06:31;;;;;;;10.02;1.33;;;;;;;14.60;76.43;99334.69;5100412;28;20557;-74
2021/08/07 00:09:17;;;;;;;8.27;1.45;;;;;;;14.56;77.15;99328.13;5075571;28;20454;-75
2021/08/07 00:12:03;;;;;;;9.60;1.60;;;;;;;14.55;76.88;99332.09;5085768;28;20035;-75
2021/08/07 00:14:49;;;;;;;10.95;1.77;;;;;;;14.52;77.49;99328.03;5070077;28;20050;-75
2021/08/07 00:17:35;;;;;;;5.82;1.30;;;;;;;14.49;77.64;99323.13;5073450;28;20088;-75
2021/08/07 00:20:21;;;;;;;7.15;1.55;;;;;;;14.45;77.26;99326.94;5098308;28;20556;-75
2021/08/07 00:23:07;;;;;;;6.70;1.35;;;;;;;14.40;76.57;99313.22;5072448;28;20032;-75
2021/08/07 00:25:53;;;;;;;12.40;1.88;;;;;;;14.36;78.65;99310.31;5071742;28;20069;-74
2021/08/07 00:28:38;;;;;;;7.40;1.75;;;;;;;14.36;78.66;99306.69;5078771;28;20042;-75
2021/08/07 00:31:24;;;;;;;7.70;1.70;;;;;;;14.34;77.66;99301.44;5062790;28;20146;-74
2021/08/07 00:34:10;;;;;;;9.70;1.88;;;;;;;14.29;78.02;99284.91;5085859;28;20031;-74
2021/08/07 00:36:56;;;;;;;9.07;1.65;;;;;;;14.25;77.88;99287.59;5068182;28;20035;-74
2021/08/07 00:39:41;;;;;;;8.40;1.60;;;;;;;14.25;79.14;99295.16;5085593;28;20035;-74
2021/08/07 00:42:27;;;;;;;10.18;1.80;;;;;;;14.22;78.92;99276.31;5085969;28;20035;-74
2021/08/07 00:45:13;;;;;;;8.70;1.50;;;;;;;14.19;78.99;99275.03;5062003;28;20039;-74
2021/08/07 00:47:59;;;;;;;7.45;1.38;;;;;;;14.19;79.47;99274.22;5073014;28;20119;-74
2021/08/07 00:50:46;;;;;;;6.82;1.35;;;;;;;14.17;79.16;99271.78;5075596;28;20044;-74
2021/08/07 00:53:32;;;;;;;7.40;1.40;;;;;;;14.17;78.79;99266.19;5084003;28;20090;-74
2021/08/07 00:56:19;;;;;;;8.55;1.83;;;;;;;14.14;79.88;99266.09;5072679;28;20047;-74
2021/08/07 00:59:04;;;;;;;9.15;1.60;;;;;;;14.14;79.49;99261.31;5087777;28;20084;-74
2021/08/07 01:02:03;;;;;;;10.48;1.42;;;;;;;14.12;79.71;99257.22;5071070;28;20034;-74
2021/08/07 01:05:09;;;;;;;8.52;1.52;;;;;;;14.09;79.46;99245.59;5076132;28;20028;-75
2021/08/07 01:08:02;;;;;;;7.65;1.63;;;;;;;14.07;80.63;99245.16;5077304;28;20032;-74
2021/08/07 01:11:06;;;;;;;7.80;1.83;;;;;;;14.09;80.28;99237.22;5081623;28;20043;-74
2021/08/07 01:13:58;;;;;;;9.95;1.67;;;;;;;14.03;81.16;99226.63;5099023;28;20105;-74
2021/08/07 01:16:44;;;;;;;8.98;1.67;;;;;;;14.04;81.30;99222.66;5088399;28;20028;-74
2021/08/07 01:19:51;;;;;;;11.48;1.60;;;;;;;14.07;81.04;99219.22;5088983;28;20040;-74
2021/08/07 01:22:52;;;;;;;11.05;1.65;;;;;;;14.04;81.58;99217.09;5086815;28;20031;-74
2021/08/07 01:25:44;;;;;;;9.43;1.50;;;;;;;14.05;81.62;99215.94;5116493;28;20130;-74
2021/08/07 01:28:32;;;;;;;9.52;1.38;;;;;;;14.07;82.47;99210.84;5086875;28;20118;-74
2021/08/07 01:31:17;;;;;;;5.65;1.30;;;;;;;14.10;82.16;99207.34;5074413;28;20483;-74
2021/08/07 01:34:03;;;;;;;6.50;1.33;;;;;;;14.11;83.19;99211.75;5085424;28;20620;-74
2021/08/07 01:36:49;;;;;;;8.88;2.15;;;;;;;14.14;83.17;99199.88;5064971;28;20583;-74
2021/08/07 01:39:35;;;;;;;8.00;1.63;;;;;;;14.17;82.79;99192.78;5070144;28;20030;-75
2021/08/07 01:42:22;;;;;;;8.45;1.55;;;;;;;14.20;82.91;99198.47;5072496;28;20398;-74
2021/08/07 01:45:08;;;;;;;9.60;1.58;;;;;;;14.18;83.07;99198.03;5071347;28;20092;-74
2021/08/07 01:48:00;;;;;;;8.10;1.55;;;;;;;14.23;82.94;99183.81;5100624;28;20505;-74
2021/08/07 01:50:58;;;;;;;8.32;2.25;;;;;;;14.26;82.70;99176.72;5104242;27;20032;-74
2021/08/07 01:53:45;;;;;;;7.70;1.90;;;;;;;14.27;83.22;99170.78;5076072;28;20048;-74
2021/08/07 01:56:37;;;;;;;10.45;2.75;;;;;;;14.27;83.90;99167.19;5088421;27;20054;-74
2021/08/07 01:59:23;;;;;;;9.07;2.97;;;;;;;14.31;83.54;99171.69;5090357;28;20040;-74
2021/08/07 02:02:08;;;;;;;11.80;3.58;;;;;;;14.31;84.02;99159.72;5086415;28;20476;-75
2021/08/07 02:04:56;;;;;;;11.38;3.90;;;;;;;14.35;83.29;99155.06;5087991;28;20592;-74
2021/08/07 02:07:41;;;;;;;10.32;3.30;;;;;;;14.36;82.74;99156.69;5075704;28;20035;-74
2021/08/07 02:10:27;;;;;;;8.60;3.17;;;;;;;14.38;83.75;99157.16;5101596;28;20114;-74
2021/08/07 02:13:15;;;;;;;10.73;3.63;;;;;;;14.42;83.48;99148.88;5073021;28;20043;-74
2021/08/07 02:16:01;;;;;;;12.40;3.83;;;;;;;14.44;83.94;99152.97;5101253;28;20042;-74
2021/08/07 02:18:47;;;;;;;11.77;3.78;;;;;;;14.43;83.72;99144.91;5078404;28;20075;-74
2021/08/07 02:21:33;;;;;;;7.72;3.47;;;;;;;14.49;83.77;99146.31;5089593;28;20047;-74
2021/08/07 02:24:18;;;;;;;8.75;3.63;;;;;;;14.48;82.84;99137.09;5074407;28;20053;-74
2021/08/07 02:27:04;;;;;;;9.00;3.97;;;;;;;14.51;84.89;99139.22;5088478;28;20035;-74
2021/08/07 02:29:50;;;;;;;12.23;3.72;;;;;;;14.53;83.48;99122.91;5071600;27;20411;-74
2021/08/07 02:32:36;;;;;;;9.32;3.58;;;;;;;14.56;83.97;99117.81;5074047;28;20039;-74
2021/08/07 02:35:22;;;;;;;9.32;3.22;;;;;;;14.58;83.70;99113.47;5075642;28;20030;-74
2021/08/07 02:38:08;;;;;;;13.32;3.40;;;;;;;14.58;84.09;99124.66;5085731;28;20036;-74
2021/08/07 02:40:54;;;;;;;7.82;2.80;;;;;;;14.59;84.01;99117.09;5071085;28;20024;-74
2021/08/07 02:43:40;;;;;;;10.82;3.50;;;;;;;14.63;83.87;99104.84;5085000;28;20042;-74
2021/08/07 02:46:26;;;;;;;10.57;3.50;;;;;;;14.65;83.28;99101.69;5084241;28;20071;-74
2021/08/07 02:49:12;;;;;;;10.43;3.30;;;;;;;14.67;84.86;99102.16;5064572;28;20032;-75
2021/08/07 02:51:58;;;;;;;11.98;3.03;;;;;;;14.68;84.18;99092.59;5086634;28;20039;-74
2021/08/07 02:54:44;;;;;;;8.48;3.30;;;;;;;14.68;83.79;99095.38;5083043;28;20044;-74
2021/08/07 02:57:30;;;;;;;8.75;3.10;;;;;;;14.70;83.82;99093.06;5081892;28;20070;-74
2021/08/07 03:00:16;;;;;;;9.48;3.85;;;;;;;14.70;83.72;99090.25;5093838;27;20093;-74
2021/08/07 03:03:02;;;;;;;10.35;4.05;;;;;;;14.73;84.61;99075.56;5083140;28;20032;-74
2021/08/07 03:05:48;;;;;;;10.13;4.75;;;;;;;14.74;84.61;99080.81;5085593;28;20032;-74
2021/08/07 03:08:34;;;;;;;8.30;4.80;;;;;;;14.74;84.70;99064.06;5074024;28;20040;-74
2021/08/07 03:11:20;;;;;;;10.73;5.40;;;;;;;14.73;84.49;99070.78;5086888;27;20040;-74
2021/08/07 03:14:05;;;;;;;10.80;5.25;;;;;;;14.73;85.68;99070.00;5082245;28;20044;-74
2021/08/07 03:16:51;;;;;;;10.27;5.22;;;;;;;14.76;85.39;99074.84;5084123;28;20032;-75
2021/08/07 03:19:37;;;;;;;10.90;5.00;;;;;;;14.79;85.25;99059.38;5083749;27;20042;-74
2021/08/07 03:22:23;;;;;;;7.90;4.85;;;;;;;14.79;85.98;99057.38;5069210;28;20031;-74
2021/08/07 03:25:10;;;;;;;12.45;5.07;;;;;;;14.80;86.67;99061.00;5097177;28;20036;-74
2021/08/07 03:27:56;;;;;;;10.68;4.50;;;;;;;14.79;87.03;99049.00;5072718;27;20092;-74
2021/08/07 03:30:42;;;;;;;11.00;3.75;;;;;;;14.80;85.70;99042.25;5065799;28;20035;-74
2021/08/07 03:33:27;;;;;;;8.13;3.70;;;;;;;14.81;85.30;99038.28;5085216;28;20389;-74
2021/08/07 03:36:13;;;;;;;10.55;3.30;;;;;;;14.81;88.24;99032.69;5068687;28;20070;-74
2021/08/07 03:38:59;;;;;;;8.10;2.88;;;;;;;14.80;87.74;99036.66;5075251;28;20502;-74
2021/08/07 03:41:45;;;;;;;7.43;2.53;;;;;;;14.78;86.85;99027.81;5076959;28;20067;-74
2021/08/07 03:44:31;;;;;;;6.75;2.05;;;;;;;14.78;88.37;99036.19;5087305;28;20038;-74
2021/08/07 03:47:17;;;;;;;7.00;2.45;;;;;;;14.81;86.11;99026.28;5098129;28;20103;-74
2021/08/07 03:50:03;;;;;;;8.27;1.90;;;;;;;14.84;87.64;99015.19;5085891;28;20101;-74
2021/08/07 03:52:48;;;;;;;7.15;2.25;;;;;;;14.84;86.56;99019.97;5072417;28;20036;-74
2021/08/07 03:55:34;;;;;;;5.68;1.98;;;;;;;14.83;87.85;99024.75;5069260;28;20063;-74
2021/08/07 03:58:20;;;;;;;4.28;1.33;;;;;;;14.82;86.08;99017.56;5071297;28;20040;-75
2021/08/07 04:01:06;;;;;;;4.78;1.45;;;;;;;14.84;86.12;99026.38;5099559;27;20043;-75
2021/08/07 04:03:52;;;;;;;4.25;1.25;;;;;;;14.85;86.16;99021.59;5082355;28;20032;-74
2021/08/07 04:06:37;;;;;;;3.15;1.27;;;;;;;14.84;86.07;99015.19;5079170;28;20068;-75
2021/08/07 04:09:23;;;;;;;2.30;0.90;;;;;;;14.83;86.00;99016.38;5072044;28;20035;-74
2021/08/07 04:12:09;;;;;;;5.53;1.50;;;;;;;14.84;85.42;99015.19;5099988;28;20036;-74
2021/08/07 04:14:55;;;;;;;3.88;0.90;;;;;;;14.81;86.98;99013.13;5073748;28;20031;-74
2021/08/07 04:17:40;;;;;;;4.88;1.35;;;;;;;14.77;86.86;99020.63;5078297;28;20453;-74
2021/08/07 04:20:26;;;;;;;2.95;0.95;;;;;;;14.79;86.30;99011.84;5088505;28;20031;-74
2021/08/07 04:23:12;;;;;;;2.22;0.70;;;;;;;14.78;85.90;99019.44;5080653;27;20114;-74
2021/08/07 04:25:58;;;;;;;2.28;0.80;;;;;;;14.79;85.76;99021.03;5073312;28;20066;-74
2021/08/07 04:28:44;;;;;;;3.55;0.88;;;;;;;14.79;85.28;99017.44;5083341;28;20031;-74
2021/08/07 04:31:29;;;;;;;2.50;0.77;;;;;;;14.80;86.10;99019.91;5085113;28;20050;-74
2021/08/07 04:34:15;;;;;;;2.80;0.75;;;;;;;14.81;86.11;99018.72;5087012;28;20537;-74
2021/08/07 04:37:01;;;;;;;3.08;0.98;;;;;;;14.78;86.79;99011.03;5072984;28;20099;-74
2021/08/07 04:39:47;;;;;;;5.28;1.20;;;;;;;14.78;85.87;99005.47;5074423;28;20032;-74
2021/08/07 04:42:33;;;;;;;2.35;0.80;;;;;;;14.79;86.56;98990.31;5086455;28;20043;-74
2021/08/07 04:45:19;;;;;;;2.70;0.70;;;;;;;14.79;85.78;99007.06;5083276;28;20051;-75
2021/08/07 04:48:06;;;;;;;3.08;0.80;;;;;;;14.80;85.50;99003.13;5112985;28;20071;-74
2021/08/07 04:50:51;;;;;;;2.90;0.77;;;;;;;14.79;87.69;98998.69;5070937;28;20065;-74
2021/08/07 04:53:37;;;;;;;3.22;0.98;;;;;;;14.80;86.69;98982.75;5071834;28;20086;-75
2021/08/07 04:56:23;;;;;;;3.40;0.80;;;;;;;14.80;85.83;98994.75;5067621;28;20024;-74
2021/08/07 04:59:09;;;;;;;3.03;0.70;;;;;;;14.82;85.55;98991.56;5078666;28;20032;-74
2021/08/07 05:01:54;;;;;;;5.15;1.00;;;;;;;14.84;85.88;98969.66;5078118;28;20047;-74
2021/08/07 05:04:40;;;;;;;3.72;0.95;;;;;;;14.85;85.86;98969.31;5085919;28;20035;-74
2021/08/07 05:07:29;;;;;;;3.85;1.10;;;;;;;14.83;85.36;98959.69;5087429;28;20027;-74
2021/08/07 05:10:15;;;;;;;4.85;0.90;;;;;;;14.83;85.58;98957.69;5082944;28;20093;-74
2021/08/07 05:13:01;;;;;;;6.40;0.70;;;;;;;14.85;84.58;98962.91;5072983;28;20035;-74
2021/08/07 05:15:47;;;;;;;3.25;0.82;;;;;;;14.82;85.71;98978.44;5083320;28;20036;-74
2021/08/07 05:18:33;;;;;;;3.05;0.90;;;;;;;14.83;85.10;98980.03;5071078;28;20040;-74
2021/08/07 05:21:18;;;;;;;6.25;1.13;;;;;;;14.83;85.08;98973.66;5079230;28;20040;-74
2021/08/07 05:24:04;;;;;;;3.17;0.80;;;;;;;14.81;85.19;98976.78;5075931;28;20027;-74
2021/08/07 05:26:50;;;;;;;1.80;0.70;;;;;;;14.81;85.82;98965.63;5074103;28;20089;-74
2021/08/07 05:29:36;;;;;;;3.30;1.10;;;;;;;14.81;85.87;98971.19;5089769;28;20032;-74
2021/08/07 05:32:22;;;;;;;3.30;1.00;;;;;;;14.78;85.46;98962.72;5079266;27;20165;-74
2021/08/07 05:35:08;;;;;;;4.32;1.00;;;;;;;14.77;86.72;98964.72;5089439;28;20028;-74
2021/08/07 05:37:53;;;;;;;3.50;0.95;;;;;;;14.78;86.08;98962.72;5072595;28;20040;-74
2021/08/07 05:40:39;;;;;;;5.03;1.05;;;;;;;14.78;86.37;98971.13;5092303;28;20039;-74
2021/08/07 05:43:25;;;;;;;2.83;0.90;;;;;;;14.76;85.69;98963.06;5075381;28;20024;-74
2021/08/07 05:46:11;;;;;;;2.78;0.85;;;;;;;14.75;86.16;98962.28;5063985;27;20050;-74
2021/08/07 05:48:57;;;;;;;7.95;1.30;;;;;;;14.77;85.92;98966.72;5071951;28;20044;-74
2021/08/07 05:51:42;;;;;;;2.65;0.80;;;;;;;14.76;86.97;98974.25;5081584;28;20105;-74
2021/08/07 05:54:28;;;;;;;4.57;1.00;;;;;;;14.77;86.94;98973.09;5088415;28;20488;-74
2021/08/07 05:57:14;;;;;;;4.70;1.08;;;;;;;14.78;86.77;98960.75;5065906;28;20028;-74
2021/08/07 06:00:02;;;;;;;6.22;1.20;;;;;;;14.78;88.91;98963.53;5075380;27;20043;-74
2021/08/07 06:02:47;;;;;;;5.70;1.00;;;;;;;14.81;87.22;98971.19;5083141;28;20563;-74
2021/08/07 06:05:33;;;;;;;3.70;1.13;;;;;;;14.86;87.61;98965.34;5097600;28;20095;-74
2021/08/07 06:08:19;;;;;;;5.63;1.10;;;;;;;14.87;88.55;98969.75;5089649;28;20035;-74
2021/08/07 06:11:05;;;;;;;6.40;1.50;;;;;;;14.90;88.97;98963.44;5089383;28;20043;-74
2021/08/07 06:13:50;;;;;;;5.22;1.10;;;;;;;14.95;87.19;98970.75;5101068;28;20063;-74
2021/08/07 06:16:36;;;;;;;6.22;1.00;;;;;;;14.97;88.77;98974.81;5081581;28;20481;-74
2021/08/07 06:19:22;;;;;;;3.38;0.77;;;;;;;15.01;90.29;98965.69;5100223;27;20028;-74
2021/08/07 06:22:08;;;;;;;4.38;1.08;;;;;;;15.05;90.30;98970.22;5076532;28;20038;-74
2021/08/07 06:24:53;;;;;;;4.18;1.05;;;;;;;15.07;89.48;98973.47;5074556;28;20043;-74
2021/08/07 06:27:39;;;;;;;4.93;1.00;;;;;;;15.11;89.34;98979.94;5082274;28;20043;-74
2021/08/07 06:30:26;;;;;;;4.25;0.95;;;;;;;15.13;91.43;98982.41;5105370;27;20115;-74
2021/08/07 06:33:12;;;;;;;7.13;1.60;;;;;;;15.20;90.48;98976.97;5084502;28;20125;-74
2021/08/07 06:35:59;;;;;;;4.38;0.80;;;;;;;15.24;87.94;98980.69;5074162;28;20032;-74
2021/08/07 06:38:45;;;;;;;3.42;1.05;;;;;;;15.30;87.15;98976.44;5070479;28;20483;-74
2021/08/07 06:41:31;;;;;;;5.00;0.95;;;;;;;15.40;88.97;98975.03;5086636;28;20038;-74
2021/08/07 06:44:17;;;;;;;5.68;0.95;;;;;;;15.53;88.13;98978.53;5088261;28;20111;-74
2021/08/07 06:47:03;;;;;;;3.38;0.90;;;;;;;15.68;87.94;98977.72;5088275;28;20044;-75
2021/08/07 06:49:49;;;;;;;3.90;0.95;;;;;;;15.86;86.83;98970.53;5073040;27;21490;-74
2021/08/07 06:52:35;;;;;;;4.32;0.90;;;;;;;16.06;85.33;98974.16;5103466;28;20035;-74
2021/08/07 06:55:20;;;;;;;4.35;0.80;;;;;;;16.29;84.51;98973.41;5066038;28;20101;-74
2021/08/07 06:58:06;;;;;;;4.15;0.70;;;;;;;16.55;83.47;98981.13;5073348;28;20039;-74
2021/08/07 07:00:52;;;;;;;5.60;0.70;;;;;;;16.81;82.71;98983.22;5067784;28;20028;-74
2021/08/07 07:03:38;;;;;;;4.55;1.13;;;;;;;17.05;83.14;98981.22;5067234;28;20032;-74
2021/08/07 07:06:23;;;;;;;6.55;1.17;;;;;;;17.27;83.25;98968.38;5073829;28;20037;-74
2021/08/07 07:09:09;;;;;;;4.10;1.10;;;;;;;17.47;81.73;98983.09;5093339;28;20039;-74
2021/08/07 07:11:55;;;;;;;5.75;1.38;;;;;;;17.65;82.14;98968.16;5069658;28;20063;-74
2021/08/07 07:14:41;;;;;;;5.85;1.20;;;;;;;17.80;81.66;98966.41;5066644;28;20055;-75
2021/08/07 07:17:28;;;;;;;6.95;1.27;;;;;;;17.96;80.77;98969.00;5057263;28;20042;-74
2021/08/07 07:20:14;;;;;;;4.38;1.30;;;;;;;18.16;80.30;98977.28;5064525;28;20032;-74
2021/08/07 07:23:00;;;;;;;7.35;1.15;;;;;;;18.29;80.15;98978.66;5069400;28;20046;-74
2021/08/07 07:25:46;;;;;;;5.50;1.20;;;;;;;18.44;81.33;98972.03;5066735;28;20089;-74
2021/08/07 07:28:31;;;;;;;4.82;1.00;;;;;;;18.57;79.39;98974.56;5074026;28;20046;-74
2021/08/07 07:31:17;;;;;;;4.85;1.02;;;;;;;18.69;79.20;98968.66;5069574;28;20038;-74
2021/08/07 07:34:03;;;;;;;6.10;1.27;;;;;;;18.80;79.24;98982.84;5042405;28;20477;-74
2021/08/07 07:36:49;;;;;;;9.57;1.40;;;;;;;18.92;78.75;98974.16;5068537;28;20549;-74
2021/08/07 07:39:35;;;;;;;9.02;1.25;;;;;;;18.98;78.76;98976.22;5063988;28;20090;-74
2021/08/07 07:42:20;;;;;;;7.68;1.20;;;;;;;19.09;78.24;98981.13;5064730;28;20046;-74
2021/08/07 07:45:07;;;;;;;6.18;1.25;;;;;;;19.18;77.97;98988.03;5063872;28;20062;-74
2021/08/07 07:47:53;;;;;;;5.78;1.20;;;;;;;19.26;77.49;98991.72;5063496;28;20033;-74
2021/08/07 07:50:39;;;;;;;5.28;1.10;;;;;;;19.31;77.71;98996.19;5095685;28;20524;-74
2021/08/07 07:53:24;;;;;;;6.60;1.38;;;;;;;19.30;78.00;98992.53;5083567;28;20047;-74
2021/08/07 07:56:10;;;;;;;5.47;1.27;;;;;;;19.34;78.36;98996.22;5081773;28;20093;-74
2021/08/07 07:58:56;;;;;;;9.23;1.60;;;;;;;19.38;77.87;99004.69;5070761;28;20067;-74
2021/08/07 08:01:42;;;;;;;8.27;1.70;;;;;;;19.39;78.45;99001.47;5081747;28;20034;-74
2021/08/07 08:04:31;;;;;;;9.60;1.63;;;;;;;19.45;78.05;98993.47;5084628;28;20068;-74
2021/08/07 08:07:17;;;;;;;7.35;1.50;;;;;;;19.51;77.96;98993.94;5084446;28;20040;-74
2021/08/07 08:10:03;;;;;;;7.05;1.75;;;;;;;19.60;77.27;98991.56;5080466;28;20047;-74
2021/08/07 08:12:49;;;;;;;7.10;1.60;;;;;;;19.67;77.33;98986.03;5080061;28;20395;-74
2021/08/07 08:15:37;;;;;;;8.73;2.00;;;;;;;19.77;77.93;98998.56;5076039;27;20038;-74
2021/08/07 08:18:23;;;;;;;10.68;2.10;;;;;;;19.89;76.91;99000.22;5087636;28;20035;-74
2021/08/07 08:21:09;;;;;;;7.00;1.40;;;;;;;19.99;76.36;99000.28;5070796;28;20039;-74
2021/08/07 08:23:55;;;;;;;9.00;1.63;;;;;;;20.07;77.22;99001.13;5085689;28;20034;-74
2021/08/07 08:26:40;;;;;;;12.00;1.63;;;;;;;20.22;76.01;99007.66;5071594;28;20475;-74
2021/08/07 08:29:26;;;;;;;8.13;1.77;;;;;;;20.33;75.13;99000.03;5087750;28;20041;-74
2021/08/07 08:32:12;;;;;;;10.45;1.75;;;;;;;20.46;75.08;99009.78;5069779;28;20028;-74
2021/08/07 08:34:58;;;;;;;10.18;1.67;;;;;;;20.59;75.39;99004.63;5072630;27;20402;-74
2021/08/07 08:37:43;;;;;;;9.38;1.80;;;;;;;20.72;74.92;99005.03;5072982;28;20464;-74
2021/08/07 08:40:29;;;;;;;10.70;1.63;;;;;;;20.83;74.64;99003.06;5091948;28;20462;-74
2021/08/07 08:43:15;;;;;;;11.82;2.03;;;;;;;20.97;75.11;99003.06;5085039;28;20061;-74
2021/08/07 08:46:01;;;;;;;12.27;1.63;;;;;;;21.11;73.71;99002.28;5074796;28;20027;-74
2021/08/07 08:48:47;;;;;;;15.75;2.47;;;;;;;21.34;73.03;99009.56;5088912;28;20047;-74
2021/08/07 08:51:33;;;;;;;10.65;1.52;;;;;;;21.56;72.77;99007.56;5077492;28;20036;-74
2021/08/07 08:54:19;;;;;;;11.30;2.00;;;;;;;21.77;71.63;99004.72;5075411;28;20047;-74
2021/08/07 08:57:05;;;;;;;10.13;2.00;;;;;;;22.00;71.11;99004.25;5078823;28;20034;-74
2021/08/07 08:59:50;;;;;;;9.40;1.88;;;;;;;22.25;70.73;99000.56;5086604;28;20180;-74
2021/08/07 09:02:37;;;;;;;6.93;1.20;;;;;;;22.48;70.12;98998.06;5087279;28;20028;-74
2021/08/07 09:05:23;;;;;;;9.25;1.92;;;;;;;22.67;69.43;99005.22;5075813;28;20036;-74
2021/08/07 09:08:08;;;;;;;12.15;2.10;;;;;;;22.74;70.16;99004.41;5086935;28;20097;-74
2021/08/07 09:11:14;;;;;;;9.45;1.60;;;;;;;22.77;69.32;99009.22;5068502;28;20395;-74
2021/08/07 09:14:18;;;;;;;8.27;1.85;;;;;;;22.66;69.31;99009.28;5079523;28;20048;-74
2021/08/07 09:17:18;;;;;;;11.75;1.80;;;;;;;22.52;68.52;99018.66;5094349;28;20146;-74
2021/08/07 09:20:04;;;;;;;10.13;1.75;;;;;;;22.39;68.46;99011.81;5097091;28;20035;-74
2021/08/07 09:22:50;;;;;;;9.68;2.05;;;;;;;22.25;69.11;99017.53;5072839;28;20114;-74
2021/08/07 09:25:37;;;;;;;12.07;2.15;;;;;;;22.05;69.93;99017.97;5067689;28;20504;-74
2021/08/07 09:28:23;;;;;;;8.45;1.65;;;;;;;22.00;70.83;99018.38;5086438;28;20101;-74
2021/08/07 09:31:08;;;;;;;10.95;1.63;;;;;;;21.92;71.28;99022.44;5067573;28;20036;-74
2021/08/07 09:34:14;;;;;;;7.55;1.90;;;;;;;21.95;71.56;99021.63;5058512;28;20508;-74
2021/08/07 09:37:00;;;;;;;11.55;2.10;;;;;;;22.02;72.06;99018.00;5085849;28;20032;-74
2021/08/07 09:39:46;;;;;;;8.10;1.80;;;;;;;22.12;71.30;99025.66;5067524;28;20039;-74
2021/08/07 09:42:33;;;;;;;6.70;1.60;;;;;;;22.25;70.71;99011.88;5067703;28;20070;-74
2021/08/07 09:45:26;;;;;;;7.05;1.33;;;;;;;22.41;70.31;99020.72;5075120;28;20032;-74
2021/08/07 09:48:13;;;;;;;9.80;1.60;;;;;;;22.62;70.45;99025.50;5062963;28;20551;-74
2021/08/07 09:50:59;;;;;;;6.57;1.25;;;;;;;22.83;68.68;99020.94;5072528;28;20036;-74
2021/08/07 09:53:45;;;;;;;6.50;1.38;;;;;;;22.92;66.55;99024.09;5071953;28;20143;-74
2021/08/07 09:57:01;;;;;;;5.85;1.20;;;;;;;23.09;67.04;99025.22;5069990;28;20111;-74
2021/08/07 09:59:48;;;;;;;10.57;1.55;;;;;;;23.27;66.53;99028.75;5090665;28;20051;-74
2021/08/07 10:02:36;;;;;;;5.07;1.10;;;;;;;23.42;66.53;99023.78;5076240;28;20052;-74
2021/08/07 10:05:27;;;;;;;4.82;1.13;;;;;;;23.58;65.93;99028.91;5097523;28;20039;-74
2021/08/07 10:08:13;;;;;;;8.25;1.17;;;;;;;23.81;66.42;99031.94;5096423;28;20044;-74
2021/08/07 10:11:08;;;;;;;5.03;1.00;;;;;;;24.02;65.92;99035.81;5076249;28;20039;-74
2021/08/07 10:13:54;;;;;;;8.25;1.40;;;;;;;24.23;64.52;99044.06;5083373;28;20081;-73
2021/08/07 10:16:40;;;;;;;4.85;1.38;;;;;;;24.37;62.83;99054.44;5067825;28;20407;-74
2021/08/07 10:19:26;;;;;;;5.10;1.10;;;;;;;24.48;61.48;99055.16;5069693;28;20043;-74
2021/08/07 10:22:13;;;;;;;6.35;1.00;;;;;;;24.66;61.04;99052.13;5090458;28;20034;-74
2021/08/07 10:25:00;;;;;;;4.32;1.05;;;;;;;24.77;61.22;99051.16;5076026;28;20038;-74
2021/08/07 10:27:45;;;;;;;4.20;0.70;;;;;;;24.92;60.53;99049.75;5074937;28;20118;-74
2021/08/07 10:30:32;;;;;;;3.33;0.82;;;;;;;25.07;60.09;99053.97;5087688;28;20031;-74
2021/08/07 10:33:19;;;;;;;3.58;0.85;;;;;;;25.24;60.09;99051.34;5073892;28;20035;-74
2021/08/07 10:36:05;;;;;;;3.90;0.63;;;;;;;25.41;60.25;99050.28;5086322;28;20118;-74
2021/08/07 10:38:54;;;;;;;1.52;0.50;;;;;;;25.58;58.88;99054.84;5090569;28;20039;-74
2021/08/07 10:41:39;;;;;;;4.38;0.80;;;;;;;25.78;58.33;99056.97;5081373;28;20161;-74
2021/08/07 10:44:25;;;;;;;3.05;0.75;;;;;;;25.98;58.17;99069.22;5082689;28;20027;-74
2021/08/07 10:47:12;;;;;;;4.03;0.80;;;;;;;25.88;54.38;99070.19;5090890;28;20050;-74
2021/08/07 10:49:57;;;;;;;2.08;0.50;;;;;;;26.06;54.66;99079.22;5075639;28;20115;-74
2021/08/07 10:52:43;;;;;;;3.47;0.82;;;;;;;26.19;55.29;99067.25;5069292;28;20100;-74
2021/08/07 10:55:49;;;;;;;4.20;0.80;;;;;;;26.34;55.80;99062.88;5073293;28;20043;-74
2021/08/07 10:58:45;;;;;;;2.95;0.50;;;;;;;26.45;55.39;99069.16;5084971;28;20036;-74
2021/08/07 11:01:31;;;;;;;2.53;0.55;;;;;;;26.58;54.35;99063.66;5071339;28;20563;-74
2021/08/07 11:04:20;;;;;;;1.63;0.43;;;;;;;26.73;55.01;99067.00;5084456;28;20034;-74
2021/08/07 11:07:08;;;;;;;3.90;0.68;;;;;;;26.86;54.92;99069.97;5093754;28;20085;-74
2021/08/07 11:10:15;;;;;;;3.05;0.63;;;;;;;26.98;52.79;99054.25;5082713;28;20047;-74
2021/08/07 11:13:23;;;;;;;2.30;0.50;;;;;;;27.15;53.09;99067.28;5075138;28;20161;-74
2021/08/07 11:16:19;;;;;;;2.20;0.45;;;;;;;27.39;53.34;99065.94;5060574;28;20031;-74
2021/08/07 11:19:43;;;;;;;3.08;0.45;;;;;;;27.39;49.78;99065.94;5088876;28;20066;-74
2021/08/07 11:22:39;;;;;;;2.60;0.40;;;;;;;27.69;50.71;99078.22;5086072;28;20114;-74
2021/08/07 11:25:26;;;;;;;1.85;0.50;;;;;;;27.73;49.46;99084.66;5097956;28;20035;-74
2021/08/07 11:28:11;;;;;;;1.30;0.50;;;;;;;27.76;48.83;99078.06;5072150;28;20031;-74
2021/08/07 11:31:11;;;;;;;2.33;0.43;;;;;;;27.96;49.74;99082.91;5078374;28;20124;-74
2021/08/07 11:34:19;;;;;;;1.45;0.30;;;;;;;28.08;50.01;99087.88;5088791;28;20062;-74
2021/08/07 11:37:15;;;;;;;0.85;0.30;;;;;;;28.14;49.05;99079.56;5087313;28;20040;-74
2021/08/07 11:40:09;;;;;;;1.38;0.47;;;;;;;28.26;48.10;99085.34;5087251;28;20110;-74
2021/08/07 11:42:55;;;;;;;1.63;0.40;;;;;;;28.35;48.89;99089.63;5099942;28;20519;-74
2021/08/07 11:45:41;;;;;;;1.63;0.32;;;;;;;28.43;48.72;99091.06;5074726;28;20039;-74
2021/08/07 11:48:35;;;;;;;1.48;0.30;;;;;;;28.55;48.07;99087.44;5088960;28;20059;-74
2021/08/07 11:51:25;;;;;;;1.27;0.40;;;;;;;28.63;46.33;99088.84;5075806;28;20044;-74
2021/08/07 11:54:14;;;;;;;1.88;0.30;;;;;;;28.70;46.54;99090.69;5076131;28;20170;-74
2021/08/07 11:57:00;;;;;;;2.88;0.47;;;;;;;28.78;45.42;99094.13;5045230;28;20038;-74
2021/08/07 11:59:45;;;;;;;1.92;0.52;;;;;;;28.73;44.88;99098.38;5067232;28;20392;-74
2021/08/07 12:02:31;;;;;;;1.48;0.50;;;;;;;28.77;45.53;99089.69;5049987;28;20103;-74
2021/08/07 12:05:17;;;;;;;1.67;0.30;;;;;;;28.61;44.67;99099.94;5049821;28;20036;-74
2021/08/07 12:08:05;;;;;;;1.20;0.50;;;;;;;28.52;46.07;99094.06;5078106;28;20767;-74
2021/08/07 12:10:52;;;;;;;2.45;0.50;;;;;;;28.44;45.19;99093.44;5064059;28;20036;-74
2021/08/07 12:13:39;;;;;;;3.50;0.47;;;;;;;28.34;46.16;99105.94;5055937;28;20496;-74
2021/08/07 12:16:32;;;;;;;1.65;0.40;;;;;;;28.25;45.29;99109.44;5043479;28;20050;-74
2021/08/07 12:19:20;;;;;;;4.40;0.77;;;;;;;28.10;44.72;99116.75;5053456;28;20032;-74
2021/08/07 12:22:06;;;;;;;3.30;0.40;;;;;;;28.02;45.75;99118.19;5055990;28;20514;-73
2021/08/07 12:25:03;;;;;;;3.70;0.60;;;;;;;27.93;46.20;99115.19;5079499;28;20502;-74
2021/08/07 12:28:05;;;;;;;1.15;0.50;;;;;;;27.77;46.14;99133.84;5068547;28;20119;-74
2021/08/07 12:30:54;;;;;;;1.95;0.50;;;;;;;27.57;47.56;99145.34;5068858;28;20493;-74
2021/08/07 12:33:41;;;;;;;1.23;0.50;;;;;;;27.39;47.48;99151.47;5072431;28;20028;-73
2021/08/07 12:36:27;;;;;;;2.58;0.60;;;;;;;27.34;46.14;99140.56;5057752;28;20052;-73
2021/08/07 12:39:13;;;;;;;2.72;0.40;;;;;;;27.20;47.36;99152.28;5067902;28;20103;-73
2021/08/07 12:41:58;;;;;;;1.88;0.70;;;;;;;27.03;52.21;99173.41;5059783;28;20033;-73
2021/08/07 12:44:58;;;;;;;4.05;0.73;;;;;;;26.69;54.26;99180.97;5052138;28;20052;-73
2021/08/07 12:47:43;;;;;;;4.13;0.80;;;;;;;26.39;56.00;99173.38;5049092;28;20377;-73
2021/08/07 12:50:29;;;;;;;3.45;0.63;;;;;;;26.17;58.00;99172.13;5052171;28;20036;-73
2021/08/07 12:53:15;;;;;;;3.70;0.88;;;;;;;25.80;61.41;99171.09;5042626;28;20046;-73
2021/08/07 12:56:01;;;;;;;2.55;0.70;;;;;;;25.73;61.48;99174.03;5072174;28;20031;-73
2021/08/07 12:59:06;;;;;;;3.67;0.70;;;;;;;25.71;63.63;99173.63;5075433;28;20028;-73
2021/08/07 13:02:05;;;;;;;1.55;0.60;;;;;;;25.68;63.03;99171.66;5060785;28;20040;-73
2021/08/07 13:04:51;;;;;;;3.70;0.65;;;;;;;25.72;64.01;99178.13;5100178;28;20565;-73
2021/08/07 13:07:40;;;;;;;2.40;0.95;;;;;;;25.69;63.68;99187.50;5088004;28;20062;-73